createdAt,value
2023-04-07T00:01:30.619Z,20.33
2023-04-07T00:03:57.383Z,16.42
2023-04-07T00:06:24.085Z,19.02
2023-04-07T00:08:50.706Z,14.23
2023-04-07T00:13:43.413Z,11.13
2023-04-07T00:16:09.854Z,13.95
2023-04-07T00:18:36.335Z,9.63
2023-04-07T00:21:02.775Z,11.82
2023-04-07T00:23:29.292Z,12.88
2023-04-07T00:25:56.094Z,15.38
2023-04-07T00:30:48.926Z,13.05
2023-04-07T00:33:15.432Z,11.80
2023-04-07T00:35:41.940Z,16.45
2023-04-07T00:38:08.448Z,19.45
2023-04-07T00:40:34.908Z,15.05
2023-04-07T00:43:01.474Z,18.27
2023-04-07T00:45:28.053Z,22.25
2023-04-07T00:47:54.606Z,18.08
2023-04-07T00:50:21.072Z,15.93
2023-04-07T00:52:47.513Z,21.05
2023-04-07T00:55:13.999Z,19.88
2023-04-07T00:57:40.559Z,19.27
2023-04-07T01:00:08.660Z,18.77
2023-04-07T01:02:43.121Z,16.10
2023-04-07T01:05:36.317Z,20.42
2023-04-07T01:08:12.999Z,18.02
2023-04-07T01:10:43.845Z,14.00
2023-04-07T01:13:22.261Z,16.70
2023-04-07T01:15:51.517Z,17.77
2023-04-07T01:18:22.700Z,17.20
2023-04-07T01:20:51.310Z,17.70
2023-04-07T01:23:23.332Z,16.40
2023-04-07T01:25:59.680Z,17.02
2023-04-07T01:28:38.300Z,16.70
2023-04-07T01:31:05.612Z,17.98
2023-04-07T01:33:32.648Z,17.92
2023-04-07T01:36:01.101Z,19.30
2023-04-07T01:38:29.371Z,17.75
2023-04-07T01:40:56.547Z,20.88
2023-04-07T01:43:24.193Z,22.63
2023-04-07T01:45:51.144Z,19.27
2023-04-07T01:48:18.076Z,20.73
2023-04-07T01:50:45.042Z,21.20
2023-04-07T01:53:11.871Z,20.70
2023-04-07T01:55:38.493Z,23.85
2023-04-07T01:58:07.935Z,20.77
2023-04-07T02:00:37.363Z,26.23
2023-04-07T02:03:16.795Z,24.17
2023-04-07T02:05:43.446Z,24.50
2023-04-07T02:08:11.662Z,24.60
2023-04-07T02:10:39.100Z,25.45
2023-04-07T02:13:07.094Z,28.85
2023-04-07T02:15:34.074Z,26.38
2023-04-07T02:18:01.812Z,28.27
2023-04-07T02:20:29.473Z,24.30
2023-04-07T02:22:56.198Z,24.58
2023-04-07T02:27:49.178Z,25.92
2023-04-07T02:30:15.887Z,23.45
2023-04-07T02:32:44.297Z,23.45
2023-04-07T02:37:37.955Z,26.65
2023-04-07T02:40:05.156Z,25.00
2023-04-07T02:42:31.728Z,20.73
2023-04-07T02:44:58.196Z,28.38
2023-04-07T02:47:25.353Z,28.13
2023-04-07T02:49:51.746Z,30.90
2023-04-07T02:52:18.177Z,27.00
2023-04-07T02:54:44.621Z,28.02
2023-04-07T02:57:11.911Z,22.92
2023-04-07T02:59:38.301Z,26.73
2023-04-07T03:02:05.326Z,24.65
2023-04-07T03:04:32.914Z,23.38
2023-04-07T03:07:00.532Z,31.27
2023-04-07T03:09:28.839Z,26.90
2023-04-07T03:11:56.663Z,22.92
2023-04-07T03:14:24.132Z,26.15
2023-04-07T03:19:17.659Z,21.25
2023-04-07T03:21:49.220Z,20.10
2023-04-07T03:24:15.853Z,27.40
2023-04-07T03:26:42.387Z,17.63
2023-04-07T03:29:18.100Z,22.87
2023-04-07T03:31:44.611Z,21.00
2023-04-07T03:34:13.567Z,24.83
2023-04-07T03:36:39.986Z,22.42
2023-04-07T03:39:06.684Z,27.15
2023-04-07T03:41:33.160Z,26.83
2023-04-07T03:43:59.644Z,21.88
2023-04-07T03:46:27.137Z,24.65
2023-04-07T03:48:54.096Z,26.23
2023-04-07T03:51:22.051Z,19.85
2023-04-07T03:53:53.200Z,23.45
2023-04-07T03:56:31.458Z,26.40
2023-04-07T03:58:58.780Z,20.98
2023-04-07T04:01:29.641Z,24.90
2023-04-07T04:04:00.917Z,24.63
2023-04-07T04:06:29.944Z,30.80
2023-04-07T04:09:04.624Z,26.50
2023-04-07T04:11:34.984Z,26.60
2023-04-07T04:14:03.931Z,21.25
2023-04-07T04:16:31.769Z,24.52
2023-04-07T04:19:03.205Z,23.60
2023-04-07T04:21:31.242Z,30.65
2023-04-07T04:23:57.717Z,25.10
2023-04-07T04:26:29.786Z,19.10
2023-04-07T04:29:02.762Z,23.65
2023-04-07T04:31:29.738Z,21.52
2023-04-07T04:33:56.881Z,24.67
2023-04-07T04:36:24.737Z,26.25
2023-04-07T04:38:56.477Z,23.20
2023-04-07T04:41:23.679Z,23.63
2023-04-07T04:43:51.169Z,21.45
2023-04-07T04:46:21.879Z,26.88
2023-04-07T04:48:49.526Z,26.50
2023-04-07T04:51:18.419Z,21.75
2023-04-07T04:53:48.559Z,29.00
2023-04-07T04:56:16.298Z,25.10
2023-04-07T04:58:48.285Z,20.67
2023-04-07T05:01:35.364Z,21.10
2023-04-07T05:04:06.880Z,24.65
2023-04-07T05:06:34.262Z,22.65
2023-04-07T05:09:06.327Z,20.95
2023-04-07T05:11:41.222Z,21.58
2023-04-07T05:14:07.839Z,23.88
2023-04-07T05:16:35.823Z,18.85
2023-04-07T05:19:03.878Z,18.55
2023-04-07T05:21:31.575Z,12.38
2023-04-07T05:24:02.353Z,18.67
2023-04-07T05:26:30.398Z,16.67
2023-04-07T05:28:57.582Z,22.58
2023-04-07T05:31:25.399Z,20.77
2023-04-07T05:33:55.430Z,21.70
2023-04-07T05:36:25.040Z,20.50
2023-04-07T05:38:55.208Z,17.30
2023-04-07T05:46:16.462Z,17.92
2023-04-07T05:48:51.755Z,15.38
2023-04-07T05:51:19.664Z,15.38
2023-04-07T05:56:12.728Z,15.25
2023-04-07T05:58:43.752Z,18.95
2023-04-07T06:01:11.643Z,19.25
2023-04-07T06:03:38.291Z,19.70
2023-04-07T06:06:11.499Z,24.40
2023-04-07T06:13:31.074Z,16.58
2023-04-07T06:15:57.555Z,22.33
2023-04-07T06:18:23.949Z,19.60
2023-04-07T06:20:50.374Z,22.85
2023-04-07T06:23:18.179Z,26.15
2023-04-07T06:25:45.378Z,20.63
2023-04-07T06:28:11.861Z,23.27
2023-04-07T06:30:38.332Z,20.33
2023-04-07T06:33:08.692Z,16.27
2023-04-07T06:35:35.326Z,20.85
2023-04-07T06:38:02.291Z,14.27
2023-04-07T06:40:28.674Z,20.45
2023-04-07T06:42:55.210Z,22.17
2023-04-07T06:45:36.606Z,20.48
2023-04-07T06:48:03.158Z,20.67
2023-04-07T06:50:29.776Z,24.45
2023-04-07T06:52:56.196Z,19.92
2023-04-07T06:55:22.692Z,21.40
2023-04-07T06:57:52.233Z,17.70
2023-04-07T07:00:19.036Z,16.42
2023-04-07T07:02:45.648Z,19.10
2023-04-07T07:07:38.499Z,18.33
2023-04-07T07:10:05.539Z,17.80
2023-04-07T07:12:32.372Z,18.50
2023-04-07T07:14:58.819Z,19.83
2023-04-07T07:17:25.300Z,20.15
2023-04-07T07:19:51.764Z,15.80
2023-04-07T07:22:18.149Z,18.25
2023-04-07T07:24:44.679Z,17.02
2023-04-07T07:27:11.132Z,15.00
2023-04-07T07:29:37.512Z,18.27
2023-04-07T07:32:03.902Z,14.07
2023-04-07T07:34:30.424Z,16.20
2023-04-07T07:36:56.903Z,18.58
2023-04-07T07:39:23.347Z,22.73
2023-04-07T07:41:51.730Z,21.17
2023-04-07T07:44:20.330Z,18.38
2023-04-07T07:46:46.871Z,15.35
2023-04-07T07:52:22.353Z,17.88
2023-04-07T07:54:49.013Z,11.15
2023-04-07T07:57:15.697Z,16.27
2023-04-07T08:02:08.756Z,14.32
2023-04-07T08:04:35.931Z,12.70
2023-04-07T08:07:02.872Z,15.02
2023-04-07T08:09:29.516Z,13.45
2023-04-07T08:14:22.581Z,13.40
2023-04-07T08:16:49.121Z,11.75
2023-04-07T08:19:15.558Z,15.00
2023-04-07T08:21:42.049Z,13.48
2023-04-07T08:24:12.320Z,13.95
2023-04-07T08:26:38.752Z,10.40
2023-04-07T08:29:05.140Z,11.65
2023-04-07T08:31:31.579Z,11.70
2023-04-07T08:33:58.858Z,12.32
2023-04-07T08:36:26.223Z,8.73
2023-04-07T08:38:52.675Z,8.95
2023-04-07T08:41:27.378Z,9.30
2023-04-07T08:43:53.873Z,10.35
2023-04-07T08:46:22.001Z,9.88
2023-04-07T08:48:50.878Z,12.98
2023-04-07T08:51:18.985Z,12.75
2023-04-07T08:53:51.850Z,7.10
2023-04-07T08:56:18.606Z,10.52
2023-04-07T08:58:46.560Z,11.40
2023-04-07T09:01:13.611Z,7.25
2023-04-07T09:03:40.576Z,14.88
2023-04-07T09:06:07.073Z,11.98
2023-04-07T09:08:33.446Z,10.68
2023-04-07T09:10:59.851Z,12.45
2023-04-07T09:13:26.297Z,11.60
2023-04-07T09:15:52.746Z,9.95
2023-04-07T09:18:19.362Z,15.20
2023-04-07T09:23:26.906Z,12.32
2023-04-07T09:25:53.454Z,9.52
2023-04-07T09:38:06.413Z,10.10
2023-04-07T09:40:33.149Z,10.40
2023-04-07T09:42:59.980Z,11.73
2023-04-07T09:45:34.001Z,12.40
2023-04-07T09:48:05.422Z,14.27
2023-04-07T09:50:35.511Z,10.70
2023-04-07T09:53:03.288Z,7.00
2023-04-07T09:55:30.364Z,7.10
2023-04-07T09:57:56.940Z,10.65
2023-04-07T10:05:17.937Z,7.25
2023-04-07T10:10:11.358Z,10.90
2023-04-07T10:19:58.491Z,7.65
2023-04-07T10:22:28.780Z,11.30
2023-04-07T10:25:00.124Z,10.80
2023-04-07T10:27:30.897Z,12.38
2023-04-07T10:29:58.384Z,6.75
2023-04-07T10:32:25.390Z,10.20
2023-04-07T10:34:53.511Z,8.30
2023-04-07T10:37:22.175Z,11.10
2023-04-07T10:39:49.211Z,7.45
2023-04-07T10:42:34.585Z,7.85
2023-04-07T10:45:01.942Z,6.57
2023-04-07T10:47:28.415Z,4.63
2023-04-07T10:50:13.587Z,7.65
2023-04-07T10:52:40.064Z,10.10
2023-04-07T10:55:25.296Z,11.43
2023-04-07T10:58:10.772Z,31.27
2023-04-07T11:00:37.204Z,11.15
2023-04-07T11:03:11.024Z,13.43
2023-04-07T11:05:38.893Z,12.32
2023-04-07T11:08:06.723Z,11.93
2023-04-07T11:10:33.883Z,11.13
2023-04-07T11:13:01.522Z,11.15
2023-04-07T11:15:28.256Z,12.90
2023-04-07T11:18:06.787Z,9.70
2023-04-07T11:20:45.883Z,16.55
2023-04-07T11:23:13.501Z,14.05
2023-04-07T11:25:41.873Z,12.23
2023-04-07T11:28:09.720Z,8.77
2023-04-07T11:30:36.397Z,13.30
2023-04-07T11:35:29.459Z,10.90
2023-04-07T11:40:34.301Z,10.40
2023-04-07T11:43:02.239Z,12.57
2023-04-07T11:45:28.798Z,12.57
2023-04-07T11:50:41.356Z,10.52
2023-04-07T11:53:07.950Z,9.27
2023-04-07T11:55:34.588Z,8.25
2023-04-07T12:00:27.634Z,9.32
2023-04-07T12:02:54.392Z,8.45
2023-04-07T12:05:21.901Z,9.85
2023-04-07T12:07:55.550Z,9.73
2023-04-07T12:10:23.031Z,11.40
2023-04-07T12:12:49.964Z,11.82
2023-04-07T12:15:16.775Z,10.95
2023-04-07T12:17:47.783Z,8.90
2023-04-07T12:20:15.028Z,8.52
2023-04-07T12:22:41.820Z,9.57
2023-04-07T12:25:08.425Z,10.63
2023-04-07T12:30:09.800Z,7.75
2023-04-07T12:32:37.678Z,8.45
2023-04-07T12:35:04.367Z,9.43
2023-04-07T12:39:58.751Z,7.07
2023-04-07T12:42:25.485Z,6.57
2023-04-07T12:44:53.067Z,5.88
2023-04-07T12:47:19.455Z,7.75
2023-04-07T12:49:46.374Z,6.75
2023-04-07T12:52:13.787Z,6.93
2023-04-07T12:54:40.171Z,6.97
2023-04-07T12:57:06.630Z,7.35
2023-04-07T12:59:33.099Z,8.20
2023-04-07T13:01:59.636Z,5.65
2023-04-07T13:04:27.008Z,8.02
2023-04-07T13:06:53.837Z,6.95
2023-04-07T13:09:20.238Z,6.07
2023-04-07T13:11:47.895Z,15.90
2023-04-07T13:14:14.345Z,11.75
2023-04-07T13:16:40.805Z,10.13
2023-04-07T13:19:09.275Z,9.38
2023-04-07T13:21:46.200Z,9.35
2023-04-07T13:24:13.716Z,8.00
2023-04-07T13:31:32.966Z,8.38
2023-04-07T13:33:59.381Z,7.97
2023-04-07T13:36:27.339Z,10.75
2023-04-07T13:38:53.810Z,9.73
2023-04-07T13:41:21.514Z,12.07
2023-04-07T13:43:48.197Z,11.68
2023-04-07T13:46:27.410Z,12.10
2023-04-07T13:48:55.604Z,15.98
2023-04-07T13:51:22.095Z,9.57
2023-04-07T13:53:48.849Z,14.68
2023-04-07T13:56:15.535Z,10.63
2023-04-07T14:03:35.457Z,7.85
2023-04-07T14:06:02.337Z,12.25
2023-04-07T14:08:28.794Z,14.68
2023-04-07T14:10:55.344Z,9.20
2023-04-07T14:13:21.788Z,8.27
2023-04-07T14:15:48.807Z,10.95
2023-04-07T14:18:15.575Z,12.88
2023-04-07T14:20:41.957Z,12.90
2023-04-07T14:23:08.448Z,13.50
2023-04-07T14:25:34.996Z,10.52
2023-04-07T14:30:27.976Z,11.65
2023-04-07T14:32:54.446Z,12.68
2023-04-07T14:35:21.615Z,10.25
2023-04-07T14:37:48.042Z,8.90
2023-04-07T14:40:14.441Z,11.75
2023-04-07T14:42:41.565Z,10.98
2023-04-07T14:45:08.267Z,9.65
2023-04-07T14:47:34.775Z,8.85
2023-04-07T14:50:01.480Z,11.55
2023-04-07T14:52:28.069Z,15.23
2023-04-07T15:02:13.507Z,11.90
2023-04-07T15:04:40.015Z,10.10
2023-04-07T15:07:06.611Z,10.35
2023-04-07T15:14:26.885Z,11.30
2023-04-07T15:16:53.273Z,12.90
2023-04-07T15:19:19.661Z,9.40
2023-04-07T15:21:46.247Z,9.32
2023-04-07T15:36:25.914Z,13.38
2023-04-07T15:38:52.262Z,16.38
2023-04-07T15:41:18.602Z,9.07
2023-04-07T15:43:45.052Z,12.15
2023-04-07T15:46:11.499Z,8.68
2023-04-07T15:48:37.875Z,8.30
2023-04-07T15:51:04.440Z,12.07
2023-04-07T15:53:31.033Z,14.93
2023-04-07T16:03:17.371Z,13.95
2023-04-07T16:05:43.932Z,11.75
2023-04-07T16:08:13.602Z,11.68
2023-04-07T16:10:40.384Z,12.05
2023-04-07T16:13:06.853Z,12.50
2023-04-07T16:15:40.149Z,15.68
2023-04-07T16:18:09.146Z,12.85
2023-04-07T16:20:35.731Z,14.98
2023-04-07T16:27:55.111Z,11.70
2023-04-07T16:30:21.963Z,10.35
2023-04-07T16:32:48.487Z,12.02
2023-04-07T16:35:15.088Z,19.65
2023-04-07T16:37:41.998Z,21.67
2023-04-07T16:40:08.965Z,19.10
2023-04-07T16:42:36.596Z,20.20
2023-04-07T16:45:03.659Z,17.10
2023-04-07T16:47:33.761Z,19.08
2023-04-07T16:50:01.590Z,18.30
2023-04-07T16:52:28.157Z,17.42
2023-04-07T16:54:54.526Z,18.77
2023-04-07T16:57:21.049Z,22.85
2023-04-07T16:59:48.446Z,18.80
2023-04-07T17:02:16.714Z,18.30
2023-04-07T17:04:44.150Z,21.48
2023-04-07T17:07:11.623Z,18.45
2023-04-07T17:09:38.094Z,20.23
2023-04-07T17:12:05.845Z,19.83
2023-04-07T17:14:32.340Z,16.85
2023-04-07T17:16:58.874Z,16.05
2023-04-07T17:19:25.671Z,21.85
2023-04-07T17:21:52.273Z,22.65
2023-04-07T17:24:18.799Z,20.98
2023-04-07T17:26:48.302Z,28.05
2023-04-07T17:29:15.682Z,23.00
2023-04-07T17:31:42.158Z,20.73
2023-04-07T17:34:08.796Z,29.08
2023-04-07T17:39:03.004Z,20.48
2023-04-07T17:41:31.099Z,22.65
2023-04-07T17:43:57.561Z,24.13
2023-04-07T17:46:24.189Z,25.05
2023-04-07T17:51:18.163Z,21.30
2023-04-07T17:58:37.467Z,19.90
2023-04-07T18:01:04.277Z,18.58
2023-04-07T18:03:31.172Z,24.20
2023-04-07T18:05:57.940Z,22.25
2023-04-07T18:10:51.630Z,21.02
2023-04-07T18:15:45.313Z,26.10
2023-04-07T18:23:05.006Z,23.80
2023-04-07T18:25:31.477Z,27.17
2023-04-07T18:27:58.848Z,24.92
2023-04-07T18:30:25.738Z,26.85
2023-04-07T18:32:52.281Z,26.08
2023-04-07T18:52:27.000Z,31.75
2023-04-07T18:57:19.835Z,24.77
2023-04-07T18:59:46.301Z,50.90
2023-04-07T19:02:12.899Z,37.17
2023-04-07T19:04:39.650Z,35.25
2023-04-07T19:09:33.293Z,39.45
2023-04-07T19:11:59.919Z,38.10
2023-04-07T19:19:19.461Z,31.50
2023-04-07T19:21:46.257Z,35.35
2023-04-07T19:31:32.355Z,34.08
2023-04-07T19:36:26.527Z,31.08
2023-04-07T19:38:53.103Z,37.53
2023-04-07T19:41:19.782Z,35.65
2023-04-07T19:46:13.460Z,36.13
2023-04-07T19:51:07.520Z,35.25
2023-04-07T19:53:34.195Z,29.15
2023-04-07T19:56:01.561Z,35.67
2023-04-07T19:58:28.005Z,34.25
2023-04-07T20:00:55.068Z,34.28
2023-04-07T20:03:22.038Z,32.85
2023-04-07T20:05:49.737Z,34.60
2023-04-07T20:08:16.474Z,35.72
2023-04-07T20:10:42.948Z,33.20
2023-04-07T20:13:09.759Z,30.00
2023-04-07T20:15:36.616Z,35.97
2023-04-07T20:18:03.730Z,34.45
2023-04-07T20:20:30.329Z,31.95
2023-04-07T20:22:56.760Z,35.70
2023-04-07T20:25:23.352Z,38.80
2023-04-07T20:27:50.336Z,32.78
2023-04-07T20:30:17.009Z,35.22
2023-04-07T20:35:11.902Z,34.47
2023-04-07T20:37:38.460Z,38.10
2023-04-07T20:40:06.076Z,32.50
2023-04-07T20:42:32.556Z,38.33
2023-04-07T20:45:03.699Z,41.15
2023-04-07T20:47:31.381Z,36.95
2023-04-07T20:49:58.738Z,35.50
2023-04-07T20:52:27.071Z,32.38
2023-04-07T20:54:53.596Z,32.00
2023-04-07T20:57:20.102Z,37.00
2023-04-07T20:59:46.576Z,40.92
2023-04-07T21:02:13.132Z,31.75
2023-04-07T21:07:06.589Z,35.05
2023-04-07T21:09:32.980Z,36.17
2023-04-07T21:12:01.927Z,36.25
2023-04-07T21:14:28.442Z,44.33
2023-04-07T21:16:54.824Z,33.85
2023-04-07T21:19:22.177Z,38.88
2023-04-07T21:21:48.638Z,36.90
2023-04-07T21:24:15.104Z,38.78
2023-04-07T21:26:41.471Z,36.85
2023-04-07T21:29:07.969Z,38.97
2023-04-07T21:31:34.384Z,40.97
2023-04-07T21:34:00.898Z,40.30
2023-04-07T21:36:27.761Z,39.65
2023-04-07T21:38:54.315Z,41.33
2023-04-07T21:41:22.518Z,42.35
2023-04-07T21:43:49.021Z,41.50
2023-04-07T21:46:16.552Z,38.03
2023-04-07T21:48:43.057Z,43.47
2023-04-07T21:51:09.571Z,45.97
2023-04-07T21:53:36.140Z,36.35
2023-04-07T21:56:02.970Z,39.03
2023-04-07T21:58:29.660Z,39.53
2023-04-07T22:05:49.091Z,40.58
2023-04-07T22:08:15.654Z,43.28
2023-04-07T22:10:42.226Z,45.38
2023-04-07T22:13:09.279Z,43.25
2023-04-07T22:15:35.734Z,46.95
2023-04-07T22:18:02.437Z,44.40
2023-04-07T22:20:28.975Z,39.53
2023-04-07T22:22:57.629Z,48.15
2023-04-07T22:25:24.807Z,44.28
2023-04-07T22:27:54.440Z,50.72
2023-04-07T22:30:20.961Z,53.70
2023-04-07T22:32:48.188Z,56.67
2023-04-07T22:35:14.893Z,53.28
2023-04-07T22:37:41.319Z,47.65
2023-04-07T22:40:08.256Z,47.85
2023-04-07T22:42:34.750Z,50.83
2023-04-07T22:45:01.307Z,47.45
2023-04-07T22:47:27.791Z,44.92
2023-04-07T22:49:54.361Z,52.35
2023-04-07T22:52:20.812Z,48.08
2023-04-07T22:54:47.249Z,40.72
2023-04-07T22:57:13.753Z,46.20
2023-04-07T22:59:43.350Z,42.53
2023-04-07T23:02:09.936Z,46.80
2023-04-07T23:04:36.484Z,42.33
2023-04-07T23:07:02.916Z,43.45
2023-04-07T23:09:29.395Z,50.97
2023-04-07T23:11:57.005Z,46.40
2023-04-07T23:14:23.518Z,53.13
2023-04-07T23:16:51.069Z,41.38
2023-04-07T23:19:17.716Z,39.65
2023-04-07T23:21:44.235Z,36.30
2023-04-07T23:24:10.816Z,43.92
2023-04-07T23:26:37.204Z,57.90
2023-04-07T23:29:03.621Z,55.00
2023-04-07T23:31:30.075Z,56.25
2023-04-07T23:33:58.286Z,37.83
2023-04-07T23:36:24.707Z,42.85
2023-04-07T23:38:51.579Z,51.53
2023-04-07T23:41:18.093Z,36.35
2023-04-07T23:43:44.507Z,40.25
2023-04-07T23:46:11.063Z,61.45
2023-04-07T23:48:37.655Z,38.22
2023-04-07T23:51:04.269Z,54.92
2023-04-07T23:53:30.909Z,197.73
2023-04-07T23:55:57.558Z,159.27
2023-04-07T23:58:23.927Z,88.88
